Latest Weather Observations for Dubbo

IDN60801

Issued at 10:35 pm EST Thursday 28 August 2014 (issued every 30 minutes, with the page automatically refreshed every 10 minutes)

About weather observations | Map of weather stations | Latest weather observations for NSW | Other Formats
Station Details ID: 065070 Name: DUBBO AIRPORT AWS Lat: -32.22 Lon: 148.58 Height: 284.0 m
Data from the previous 72 hours. | See also: Recent months at Dubbo
Date/Time
EST
Temp
°C
App
Temp
°C
Dew
Point
Rel
Hum
%
Delta-T
°C
Wind Press
QNH
hPa
Press
MSL
hPa
Rain
since 9 am
mm
Dir
 
Spd
km/h
Gust
km/h
Spd
kts
Gust
kts
28/10:30pm 9.8 5.7 6.3 79 1.6 SSE 17 19 9 10 1026.9 - 0.0
28/10:00pm 10.1 6.3 5.9 75 2.0 ESE 15 19 8 10 1026.8 1027.1 0.0
28/09:30pm 10.6 6.9 6.2 74 2.1 E 15 19 8 10 1026.7 - 0.0
28/09:00pm 11.0 7.3 6.4 73 2.2 E 15 20 8 11 1026.6 1026.9 0.0
28/08:30pm 10.4 7.2 6.7 78 1.8 ESE 13 15 7 8 1026.3 - 0.0
28/08:00pm 9.3 6.4 6.6 83 1.3 SE 11 13 6 7 1026.1 1026.4 0.0
28/07:30pm 9.4 6.9 6.5 82 1.4 SE 9 11 5 6 1025.9 - 0.0
28/07:00pm 9.9 7.9 7.2 83 1.3 SE 7 9 4 5 1025.6 1025.9 0.0
28/06:30pm 10.0 8.1 6.7 80 1.6 E 6 7 3 4 1025.4 - 0.0
28/06:00pm 13.6 11.9 7.6 67 3.0 E 6 7 3 4 1025.2 1025.5 0.0
28/05:30pm 14.6 12.8 7.9 64 3.4 E 7 9 4 5 1025.0 - 0.0
28/05:00pm 15.4 13.3 8.4 63 3.6 E 9 11 5 6 1024.9 1025.1 0.0
28/04:30pm 16.9 13.0 7.3 53 4.9 E 17 22 9 12 1024.7 - 0.0
28/04:00pm 19.1 15.8 6.6 44 6.3 SSE 13 19 7 10 1024.4 1024.6 0.0
28/03:30pm 18.7 14.6 6.2 44 6.3 SSE 17 26 9 14 1024.3 - 0.0
28/03:00pm 19.6 16.6 7.7 46 6.2 SSE 13 22 7 12 1024.3 1024.5 0.0
28/02:30pm 18.5 15.2 8.2 51 5.4 S 15 20 8 11 1024.6 - 0.0
28/02:00pm 18.8 16.2 7.9 49 5.6 ESE 11 20 6 11 1024.6 1024.8 0.0
28/01:30pm 19.0 15.0 8.1 49 5.7 ESE 19 28 10 15 1024.8 - 0.0
28/01:00pm 18.2 15.7 8.2 52 5.2 ESE 11 19 6 10 1025.0 1025.3 0.0
28/12:30pm 17.2 13.0 7.3 52 5.0 SSE 19 28 10 15 1025.2 - 0.0
28/12:00pm 17.2 13.2 8.1 55 4.7 SE 19 26 10 14 1025.7 1026.0 0.0
28/11:30am 16.4 12.2 8.1 58 4.3 SE 20 30 11 16 1026.1 - 0.0
28/11:00am 15.4 10.6 7.2 58 4.1 SE 22 30 12 16 1026.5 1026.8 0.0
28/10:30am 15.0 10.6 7.5 61 3.8 SE 20 28 11 15 1026.5 - 0.0
28/10:00am 13.9 9.0 7.0 63 3.4 SSE 22 32 12 17 1026.6 1026.9 0.0
28/09:30am 12.2 7.6 6.3 67 2.8 SSE 20 26 11 14 1026.4 - 0.0
28/09:00am 10.7 6.1 5.5 70 2.4 SSE 19 24 10 13 1026.3 1026.6 0.0
28/08:30am 9.5 5.3 5.5 76 1.8 SSE 17 20 9 11 1026.4 - 0.0
28/08:00am 8.0 4.4 5.1 82 1.3 SSE 13 20 7 11 1026.1 1026.4 0.0
28/07:30am 6.0 1.9 4.2 88 0.8 SSE 15 20 8 11 1025.8 - 0.0
28/07:00am 4.4 0.2 3.8 96 0.3 SSE 15 17 8 9 1025.4 1025.7 0.0
28/06:30am 2.5 -1.7 1.8 95 0.3 SE 13 15 7 8 1025.3 - 0.0
28/06:00am 3.1 -1.4 2.2 94 0.4 SSE 15 17 8 9 1024.9 1025.1 0.0
28/05:30am 4.1 -0.3 2.5 89 0.7 SSE 15 17 8 9 1024.9 - 0.0
28/05:00am 4.9 0.3 3.7 92 0.5 SSE 17 20 9 11 1024.7 1024.9 0.0
28/04:30am 5.4 0.9 4.4 93 0.4 SSE 17 24 9 13 1024.6 - 0.0
28/04:00am 2.6 -1.6 1.9 95 0.3 SSE 13 15 7 8 1024.7 1024.9 0.0
28/03:30am 3.2 -0.5 2.3 94 0.4 SSE 11 13 6 7 1024.6 - 0.0
28/03:00am 3.6 -0.4 2.9 95 0.3 SE 13 15 7 8 1024.5 1024.7 0.0
28/02:30am 4.1 0.0 2.5 89 0.7 SSE 13 15 7 8 1024.5 - 0.0
28/02:00am 5.3 0.8 4.4 94 0.4 SSE 17 19 9 10 1024.6 1024.8 0.0
28/01:30am 4.9 1.1 3.9 93 0.4 SSE 13 15 7 8 1024.8 - 0.0
28/01:00am 5.6 1.1 4.1 90 0.6 SSE 17 19 9 10 1025.0 1025.3 0.0
28/12:30am 5.2 1.4 3.7 90 0.6 SE 13 15 7 8 1025.2 - 0.0
28/12:00am 8.4 4.4 5.0 79 1.5 S 15 20 8 11 1025.1 1025.4 0.0
 
Date/Time
EST
Temp
°C
App
Temp
°C
Dew
Point
Rel
Hum
%
Delta-T
°C
Wind Press
QNH
hPa
Press
MSL
hPa
Rain
since 9 am
mm
Dir
 
Spd
km/h
Gust
km/h
Spd
kts
Gust
kts
27/11:30pm 8.7 4.9 5.6 81 1.4 S 15 19 8 10 1025.1 - 0.0
27/11:00pm 8.6 4.8 5.9 83 1.2 S 15 19 8 10 1025.1 1025.4 0.0
27/10:30pm 7.9 4.5 5.7 86 1.0 SSE 13 15 7 8 1025.1 - 0.0
27/10:00pm 8.5 5.6 6.3 86 1.0 SE 11 15 6 8 1025.0 1025.3 0.0
27/09:30pm 8.5 5.4 5.6 82 1.3 SSE 11 13 6 7 1024.9 - 0.0
27/09:00pm 8.6 6.2 5.2 79 1.5 SE 7 9 4 5 1024.8 1025.0 0.0
27/08:30pm 10.2 7.3 6.5 78 1.8 ESE 11 13 6 7 1024.6 - 0.0
27/08:00pm 10.3 7.7 6.1 75 2.0 ESE 9 13 5 7 1024.4 1024.6 0.0
27/07:30pm 9.4 5.8 5.2 75 1.9 SE 13 17 7 9 1024.1 - 0.0
27/07:00pm 12.0 8.7 6.3 68 2.7 SSE 13 15 7 8 1023.7 1023.9 0.0
27/06:30pm 13.6 10.4 6.9 64 3.3 S 13 17 7 9 1023.4 - 0.0
27/06:00pm 14.3 10.6 6.4 59 3.8 SSE 15 20 8 11 1023.2 1023.5 0.0
27/05:30pm 16.5 11.5 6.6 52 4.9 SSE 22 33 12 18 1022.9 - 0.0
27/05:00pm 16.7 12.4 7.1 53 4.8 SSE 19 24 10 13 1022.6 1022.9 0.0
27/04:30pm 18.3 13.4 7.1 48 5.7 SSE 22 32 12 17 1022.3 - 0.0
27/04:00pm 18.5 13.9 6.7 46 6.0 SSE 20 35 11 19 1022.1 1022.4 0.0
27/03:30pm 19.0 14.0 6.5 44 6.3 SE 22 28 12 15 1021.9 - 0.0
27/03:00pm 19.0 14.9 6.1 43 6.5 SSE 17 26 9 14 1021.9 1022.1 0.0
27/02:30pm 18.5 15.0 7.0 47 5.9 SSE 15 22 8 12 1021.9 - 0.0
27/02:00pm 19.9 14.6 7.0 43 6.6 ESE 24 37 13 20 1021.8 1022.0 0.0
27/01:30pm 19.1 14.3 7.2 46 6.1 SE 22 32 12 17 1022.1 - 0.0
27/01:00pm 18.1 11.9 6.3 46 5.9 ESE 28 37 15 20 1022.2 1022.5 0.0
27/12:30pm 19.1 12.9 7.8 48 5.9 SE 30 39 16 21 1022.3 - 0.0
27/12:00pm 18.8 12.9 7.6 48 5.8 ESE 28 41 15 22 1022.6 1022.9 0.0
27/11:30am 18.3 11.5 7.7 50 5.5 ESE 33 50 18 27 1023.0 - 0.0
27/11:09am 18.6 13.0 8.6 52 5.3 ESE 28 46 15 25 1023.1 - 0.0
27/11:00am 18.2 12.8 8.2 52 5.2 ESE 26 39 14 21 1023.2 1023.5 0.0
27/10:30am 17.3 12.5 9.0 58 4.4 SE 24 43 13 23 1023.6 - 0.0
27/10:00am 15.8 11.5 9.2 65 3.4 SE 22 32 12 17 1023.7 1023.9 0.0
27/09:30am 14.8 11.0 9.2 69 2.9 SE 19 28 10 15 1023.6 - 0.0
27/09:00am 13.4 9.6 8.9 74 2.3 SSE 19 26 10 14 1023.5 1023.7 1.2
27/08:30am 12.1 8.7 9.3 83 1.4 SSE 17 22 9 12 1023.2 - 1.2
27/08:00am 10.4 7.6 8.7 89 0.8 SSE 13 17 7 9 1022.9 1023.2 1.2
27/07:30am 8.9 6.5 8.6 98 0.1 SSE 11 15 6 8 1022.4 - 1.2
27/07:00am 7.1 3.9 6.8 98 0.1 SSE 13 15 7 8 1022.2 1022.5 1.2
27/06:30am 6.9 3.2 6.5 97 0.2 SSE 15 17 8 9 1021.8 - 1.2
27/06:00am 7.6 4.1 7.3 98 0.1 SSE 15 17 8 9 1021.4 1021.6 1.2
27/05:30am 7.5 4.0 7.4 99 0.0 SSE 15 17 8 9 1021.1 - 1.2
27/05:00am 7.3 3.8 7.2 99 0.0 SSE 15 17 8 9 1021.1 1021.3 1.2
27/04:30am 7.6 4.2 7.5 99 0.0 SSE 15 19 8 10 1021.0 - 1.2
27/04:00am 7.5 4.0 7.4 99 0.0 SSE 15 19 8 10 1021.0 1021.2 1.2
27/03:30am 7.3 3.4 7.2 99 0.0 SSE 17 19 9 10 1020.9 - 1.2
27/03:00am 7.3 4.1 6.9 97 0.2 SSE 13 17 7 9 1021.1 1021.3 1.2
27/02:30am 8.5 5.7 8.4 99 0.0 SSE 13 15 7 8 1021.4 - 1.2
27/02:00am 8.1 5.8 7.5 96 0.3 SSE 9 13 5 7 1021.8 1022.0 1.2
27/01:30am 9.7 7.6 9.7 100 0.0 SSE 11 13 6 7 1022.0 - 1.2
27/01:05am 7.4 5.4 7.3 99 0.0 S 7 11 4 6 1022.1 - 1.2
27/01:00am 7.5 5.2 7.4 99 0.0 S 9 11 5 6 1022.1 1022.4 1.2
27/12:30am 7.4 5.4 7.3 99 0.0 SE 7 7 4 4 1022.2 - 1.2
27/12:14am 7.5 5.6 7.4 99 0.0 SSE 7 9 4 5 1022.1 - 1.2
27/12:00am 7.6 5.3 7.5 99 0.0 SSE 9 9 5 5 1022.1 1022.4 1.2
 
Date/Time
EST
Temp
°C
App
Temp
°C
Dew
Point
Rel
Hum
%
Delta-T
°C
Wind Press
QNH
hPa
Press
MSL
hPa
Rain
since 9 am
mm
Dir
 
Spd
km/h
Gust
km/h
Spd
kts
Gust
kts
26/11:30pm 7.7 5.4 7.4 98 0.1 S 9 11 5 6 1022.4 - 1.2
26/11:00pm 8.5 6.4 8.1 97 0.2 SW 9 11 5 6 1022.6 1022.9 1.2
26/10:30pm 9.4 7.1 9.1 98 0.2 SW 11 15 6 8 1022.6 - 1.0
26/10:00pm 9.5 7.6 9.0 97 0.2 WSW 9 11 5 6 1023.0 1023.3 1.0
26/09:30pm 9.8 8.3 9.3 97 0.3 W 7 9 4 5 1023.1 - 1.0
26/09:00pm 10.0 7.4 9.4 96 0.3 NW 13 19 7 10 1023.2 1023.5 1.0
26/08:30pm 10.9 9.0 9.2 89 0.9 NE 9 19 5 10 1023.0 - 0.6
26/08:00pm 12.3 12.2 9.5 83 1.4 CALM 0 6 0 3 1022.7 1023.0 0.2
26/07:30pm 12.5 11.1 9.7 83 1.4 NNW 7 9 4 5 1022.3 - 0.0
26/07:00pm 13.2 11.8 8.9 75 2.2 ENE 6 7 3 4 1022.0 1022.3 0.0
26/06:30pm 13.3 9.9 9.0 75 2.2 SE 17 20 9 11 1021.2 - 0.0
26/06:00pm 13.5 8.6 8.4 71 2.6 ESE 24 35 13 19 1020.4 1020.6 0.0
26/05:30pm 15.0 7.7 7.3 60 3.9 E 35 50 19 27 1019.4 - 0.0
26/05:23pm 15.4 8.6 7.7 60 3.9 E 33 48 18 26 1019.2 - 0.0
26/05:00pm 16.5 12.4 8.5 59 4.1 E 20 30 11 16 1019.2 1019.5 0.0
26/04:30pm 18.3 11.9 8.6 53 5.1 ESE 32 43 17 23 1018.6 - 0.0
26/04:00pm 18.2 14.1 7.9 51 5.3 SSE 19 28 10 15 1018.3 1018.5 0.0
26/03:30pm 18.1 12.2 7.5 50 5.4 SSE 28 35 15 19 1018.4 - 0.0
26/03:00pm 19.2 14.4 8.8 51 5.5 SE 24 33 13 18 1018.0 1018.2 0.0
26/02:30pm 19.4 13.6 7.8 47 6.0 E 28 37 15 20 1018.3 - 0.0
26/02:00pm 19.6 14.5 9.2 51 5.6 ESE 26 37 14 20 1018.6 1018.8 0.0
26/01:30pm 18.8 14.0 8.7 52 5.3 ESE 24 35 13 19 1018.9 - 0.0
26/01:00pm 18.3 13.6 9.4 56 4.7 ESE 24 41 13 22 1019.5 1019.8 0.0
26/12:30pm 16.8 12.5 9.2 61 4.0 ESE 22 32 12 17 1020.1 - 0.0
26/12:00pm 16.9 12.8 8.8 59 4.2 E 20 33 11 18 1020.4 1020.6 0.0
26/11:30am 17.2 12.3 8.6 57 4.5 E 24 33 13 18 1020.7 - 0.0
26/11:00am 17.1 12.7 9.0 59 4.2 ESE 22 32 12 17 1020.9 1021.1 0.0
26/10:30am 16.4 11.3 9.3 63 3.7 ESE 26 37 14 20 1021.0 - 0.0
26/10:00am 15.4 10.7 9.1 66 3.3 ESE 24 37 13 20 1021.2 1021.4 0.0
26/09:30am 15.0 10.3 9.4 69 2.9 ESE 24 35 13 19 1021.1 - 0.0
26/09:00am 12.5 8.3 8.4 76 2.1 SSE 20 28 11 15 1021.1 1021.3 0.0
26/08:30am 11.0 6.2 7.5 79 1.7 SSE 22 28 12 15 1021.0 - 0.0
26/08:00am 9.7 4.8 7.0 83 1.3 SSE 22 30 12 16 1020.9 1021.1 0.0
26/07:30am 8.2 4.5 6.5 89 0.8 SE 15 19 8 10 1020.9 - 0.0
26/07:00am 6.7 3.2 5.5 92 0.5 SE 13 17 7 9 1020.7 1020.9 0.0
26/06:30am 6.4 2.8 5.0 91 0.6 SSE 13 17 7 9 1020.6 - 0.0
26/06:00am 7.0 3.8 5.3 89 0.8 SSE 11 13 6 7 1020.3 1020.5 0.0
26/05:30am 8.1 4.9 6.7 91 0.7 SSE 13 17 7 9 1020.1 - 0.0
26/05:00am 7.3 3.1 5.9 91 0.6 SSE 17 20 9 11 1019.8 1020.0 0.0
26/04:30am 6.5 1.8 5.1 91 0.6 SSE 19 20 10 11 1019.8 - 0.0
26/04:00am 6.0 1.6 4.8 92 0.5 SSE 17 20 9 11 1019.7 1019.9 0.0
26/03:30am 5.9 1.5 4.7 92 0.5 SSE 17 19 9 10 1019.8 - 0.0
26/03:00am 5.6 1.5 4.4 92 0.5 SSE 15 17 8 9 1020.0 1020.2 0.0
26/02:30am 5.5 1.8 4.3 92 0.5 SSE 13 15 7 8 1020.3 - 0.0
26/02:00am 5.1 2.5 3.4 89 0.7 SE 6 11 3 6 1020.5 1020.7 0.0
26/01:30am 6.5 4.2 5.8 95 0.3 S 7 9 4 5 1020.8 - 0.0
26/01:00am 5.3 2.7 4.0 91 0.6 WSW 7 7 4 4 1021.1 1021.3 0.0
26/12:30am 5.1 3.7 3.4 89 0.7 CALM 0 0 0 0 1021.3 - 0.0
26/12:00am 6.0 4.3 3.8 86 0.9 NW 2 9 1 5 1021.4 1021.6 0.0
 
Date/Time
EST
Temp
°C
App
Temp
°C
Dew
Point
Rel
Hum
%
Delta-T
°C
Wind Press
QNH
hPa
Press
MSL
hPa
Rain
since 9 am
mm
Dir
 
Spd
km/h
Gust
km/h
Spd
kts
Gust
kts
25/11:30pm 6.0 4.2 3.5 84 1.1 SSW 2 6 1 3 1021.6 - 0.0
25/11:00pm 6.5 4.3 3.5 81 1.3 S 4 9 2 5 1022.0 1022.3 0.0

Other Formats:

Comma delimited format used in spreadsheet applications
http://www.bom.gov.au/fwo/IDN60801/IDN60801.95719.axf

JavaScript Object Notation format (JSON) in row-major order
http://www.bom.gov.au/fwo/IDN60801/IDN60801.95719.json